Time;durP1;ratioP1;P1;durP2;ratioP2;P2;SDS_P1;SDS_P2;PMS_P1;PMS_P2;Temp;Humidity;BMP_temperature;BMP_pressure;BME280_temperature;BME280_humidity;BME280_pressure;Samples;Min_cycle;Max_cycle;Signal;HPM_P1;HPM_P2
2023/05/25 00:01:34;;;;;;;;;11.75;11.25;;;;;-147.17;100.00;16672.84;5071268;28;51591;-57
2023/05/25 00:04:02;;;;;;;;;14.50;12.50;;;;;-147.17;100.00;16672.84;5070233;28;51061;-57
2023/05/25 00:06:32;;;;;;;;;13.75;13.50;;;;;-147.17;100.00;15923.47;5070557;28;51992;-57
2023/05/25 00:08:57;;;;;;;;;12.00;11.75;;;;;-147.17;100.00;15923.47;5070153;28;50957;-57
2023/05/25 00:11:23;;;;;;;;;12.00;12.00;;;;;-147.17;100.00;15174.22;5069656;28;51063;-59
2023/05/25 00:13:49;;;;;;;;;15.75;15.25;;;;;-147.17;100.00;14425.13;5068998;28;51148;-58
2023/05/25 00:16:14;;;;;;;;;12.75;12.25;;;;;-147.17;100.00;14425.13;5058095;28;51471;-59
2023/05/25 00:18:40;;;;;;;;;13.00;12.25;;;;;-147.17;100.00;13925.81;5069358;28;50981;-59
2023/05/25 00:21:06;;;;;;;;;15.25;14.25;;;;;-147.17;100.00;13176.94;5067687;28;52656;-59
2023/05/25 00:23:31;;;;;;;;;15.00;14.25;;;;;-147.17;100.00;11929.16;5068470;28;50990;-59
2023/05/25 00:25:57;;;;;;;;;14.75;13.25;;;;;-147.17;100.00;11180.69;5065333;28;51060;-58
2023/05/25 00:28:22;;;;;;;;;15.75;15.25;;;;;-147.17;100.00;11430.19;5069854;28;50954;-58
2023/05/25 00:30:48;;;;;;;;;15.25;15.00;;;;;-147.17;100.00;9933.56;5042037;28;51208;-57
2023/05/25 00:33:14;;;;;;;;;11.75;10.75;;;;;-147.17;100.00;9933.56;5063364;28;51151;-57
2023/05/25 00:35:41;;;;;;;;;15.50;15.00;;;;;-147.17;100.00;7440.50;5075393;28;50912;-58
2023/05/25 00:38:15;;;;;;;;;17.25;15.00;;;;;-147.17;100.00;8686.84;5069096;28;51116;-58
2023/05/25 00:40:41;;;;;;;;;14.00;13.50;;;;;-147.17;100.00;7939.00;5074462;28;51101;-58
2023/05/25 00:43:10;;;;;;;;;13.00;12.00;;;;;-147.17;100.00;7440.50;5073677;27;51199;-58
2023/05/25 00:45:36;;;;;;;;;15.50;14.50;;;;;-147.17;100.00;7191.28;5065878;28;51376;-59
2023/05/25 00:48:03;;;;;;;;;13.25;12.25;;;;;-147.17;100.00;6692.91;5072722;28;51218;-58
2023/05/25 00:50:40;;;;;;;;;17.00;15.75;;;;;-147.17;100.00;5945.44;5074572;28;51050;-58
2023/05/25 00:53:07;;;;;;;;;16.00;14.00;;;;;-147.17;100.00;4949.06;5068665;28;51386;-58
2023/05/25 00:55:37;;;;;;;;;17.50;16.50;;;;;-147.17;100.00;4201.94;5070086;28;50969;-58
2023/05/25 00:58:04;;;;;;;;;18.50;17.00;;;;;-147.17;100.00;2210.31;5072536;28;51526;-59
2023/05/25 01:00:32;;;;;;;;;15.00;14.00;;;;;-147.17;100.00;2708.13;5072005;28;51815;-58
2023/05/25 01:02:59;;;;;;;;;14.75;14.75;;;;;-147.17;100.00;2459.22;5072970;28;51272;-58
2023/05/25 01:05:29;;;;;;;;;14.75;14.25;;;;;-147.17;100.00;1712.56;5073545;28;51143;-58
2023/05/25 01:07:58;;;;;;;;;14.00;14.00;;;;;-147.17;100.00;717.28;5070196;28;51360;-58
2023/05/25 01:10:25;;;;;;;;;14.50;14.00;;;;;-147.17;100.00;219.72;5069782;28;51165;-58
2023/05/25 01:12:52;;;;;;;;;15.25;14.75;;;;;-147.17;100.00;-277.75;5070636;28;51326;-58
2023/05/25 01:15:19;;;;;;;;;16.75;15.75;;;;;-147.17;100.00;-1023.88;5072346;28;53769;-59
2023/05/25 01:17:52;;;;;;;;;16.00;13.00;;;;;-147.17;100.00;-1769.84;5066391;28;51006;-59
2023/05/25 01:20:18;;;;;;;;;16.00;15.00;;;;;-147.17;100.00;-2267.06;5068087;28;51099;-58
2023/05/25 01:22:52;;;;;;;;;14.50;13.75;;;;;-147.17;100.00;-2764.22;5073674;28;51294;-58
2023/05/25 01:25:22;;;;;;;;;13.50;13.50;;;;;-147.17;100.00;-3509.84;5068156;28;50996;-58
2023/05/25 01:27:57;;;;;;;;;15.75;15.00;;;;;-147.17;100.00;-4255.34;5069127;28;51254;-58
2023/05/25 01:30:25;;;;;;;;;14.00;14.00;;;;;-147.17;100.00;-4503.81;5071236;28;51111;-58
2023/05/25 01:32:52;;;;;;;;;14.75;13.25;;;;;-147.17;100.00;-5000.69;5068838;28;51184;-58
2023/05/25 01:35:20;;;;;;;;;14.25;14.25;;;;;-147.17;100.00;-5745.88;5064779;28;51052;-59
2023/05/25 01:37:45;;;;;;;;;15.50;14.25;;;;;-147.17;100.00;-5994.25;5052503;28;51370;-58
2023/05/25 01:40:13;;;;;;;;;12.25;12.00;;;;;-147.17;100.00;-6739.25;5066375;28;50954;-59
2023/05/25 01:42:38;;;;;;;;;14.75;14.00;;;;;-147.17;100.00;-7235.84;5070176;28;51409;-58
2023/05/25 01:45:04;;;;;;;;;13.75;13.75;;;;;-147.17;100.00;-7980.59;5062964;28;51792;-58
2023/05/25 01:48:11;;;;;;;;;14.50;13.75;;;;;-147.17;100.00;-8725.22;5073038;28;50994;-58
2023/05/25 01:51:03;;;;;;;;;15.75;15.00;;;;;-147.17;100.00;-8973.38;5036203;28;51252;-57
2023/05/25 01:53:47;;;;;;;;;17.00;16.00;;;;;-147.17;100.00;-9221.53;5070387;28;51168;-57
2023/05/25 01:56:13;;;;;;;;;13.50;13.50;;;;;-147.17;100.00;-9221.53;5070962;28;51078;-57
2023/05/25 01:58:43;;;;;;;;;13.25;13.25;;;;;-147.17;100.00;-9717.81;5067093;28;51524;-58
2023/05/25 02:01:10;;;;;;;;;16.50;16.25;;;;;-147.17;100.00;-10214.00;5073278;28;51053;-59
2023/05/25 02:03:37;;;;;;;;;15.25;14.25;;;;;-147.17;100.00;-10214.00;5071533;28;51156;-58
2023/05/25 02:06:03;;;;;;;;;14.00;14.00;;;;;-147.17;100.00;-10958.19;5068016;28;51800;-58
2023/05/25 02:08:28;;;;;;;;;15.50;15.50;;;;;-147.17;100.00;-11206.22;5070840;28;50904;-58
2023/05/25 02:10:53;;;;;;;;;14.50;14.50;;;;;-147.17;100.00;-11454.25;5073255;28;51146;-59
2023/05/25 02:13:19;;;;;;;;;15.00;14.25;;;;;-147.17;100.00;-11454.25;5055318;28;51250;-59
2023/05/25 02:15:44;;;;;;;;;16.75;15.25;;;;;-147.17;100.00;-11454.25;5062974;28;52170;-58
2023/05/25 02:18:09;;;;;;;;;15.25;14.50;;;;;-147.17;100.00;-11950.22;5071331;28;51118;-58
2023/05/25 02:20:35;;;;;;;;;15.00;15.00;;;;;-147.17;100.00;-12198.19;5072867;28;51596;-58
2023/05/25 02:23:01;;;;;;;;;14.00;14.00;;;;;-147.17;100.00;-11950.22;5051724;28;51273;-58
2023/05/25 02:25:26;;;;;;;;;15.00;14.25;;;;;-147.17;100.00;-11950.22;5072126;28;51860;-58
2023/05/25 02:27:52;;;;;;;;;14.00;14.00;;;;;-147.17;100.00;-12198.19;5068873;28;51000;-58
2023/05/25 02:30:17;;;;;;;;;15.00;15.00;;;;;-147.17;100.00;-12694.06;5064207;28;51212;-59
2023/05/25 02:32:42;;;;;;;;;16.50;15.00;;;;;-147.17;100.00;-12694.06;5058935;28;51226;-58
2023/05/25 02:35:08;;;;;;;;;16.00;14.75;;;;;-147.17;100.00;-12694.06;5066410;28;51635;-58
2023/05/25 02:37:34;;;;;;;;;16.00;15.50;;;;;-147.17;100.00;-12941.97;5048606;28;51500;-58
2023/05/25 02:39:59;;;;;;;;;15.00;15.00;;;;;-147.17;100.00;-12941.97;5069806;28;51160;-57
2023/05/25 02:42:25;;;;;;;;;16.75;15.00;;;;;-147.17;100.00;-13437.75;5070077;28;51048;-58
2023/05/25 02:44:50;;;;;;;;;15.00;15.00;;;;;-147.17;100.00;-13437.75;5062090;28;51066;-59
2023/05/25 02:47:20;;;;;;;;;17.00;16.25;;;;;-147.17;100.00;-13933.50;5067198;28;51192;-60
2023/05/25 02:49:46;;;;;;;;;16.00;14.75;;;;;-147.17;100.00;-13685.63;5071577;28;51024;-58
2023/05/25 02:52:11;;;;;;;;;19.50;16.50;;;;;-147.17;100.00;-13933.50;5070334;28;51128;-59
2023/05/25 02:54:37;;;;;;;;;15.25;13.50;;;;;-147.17;100.00;-13933.50;5071117;28;52077;-58
2023/05/25 02:57:03;;;;;;;;;18.50;17.00;;;;;-147.17;100.00;-13933.50;5069213;28;51221;-58
2023/05/25 02:59:29;;;;;;;;;18.50;17.25;;;;;-147.17;100.00;-13933.50;5070562;28;51247;-58
2023/05/25 03:01:55;;;;;;;;;16.25;16.25;;;;;-147.17;100.00;-13933.50;5071373;28;51730;-58
2023/05/25 03:04:20;;;;;;;;;14.50;13.75;;;;;-147.17;100.00;-13933.50;5071339;28;51098;-58
2023/05/25 03:06:46;;;;;;;;;17.25;16.00;;;;;-147.17;100.00;-13685.63;5066311;28;50946;-58
2023/05/25 03:09:12;;;;;;;;;20.25;17.75;;;;;-147.17;100.00;-13933.50;5070371;28;51246;-58
2023/05/25 03:11:37;;;;;;;;;15.00;13.50;;;;;-147.17;100.00;-13685.63;5072589;28;51274;-57
2023/05/25 03:14:02;;;;;;;;;17.25;16.25;;;;;-147.17;100.00;-13933.50;5069595;28;52377;-58
2023/05/25 03:16:28;;;;;;;;;14.00;14.00;;;;;-147.17;100.00;-13933.50;5072796;28;51034;-58
2023/05/25 03:18:53;;;;;;;;;17.50;15.00;;;;;-147.17;100.00;-13933.50;5063386;28;51133;-58
2023/05/25 03:21:21;;;;;;;;;14.50;12.75;;;;;-147.17;100.00;-14181.31;5072583;28;50988;-58
2023/05/25 03:23:46;;;;;;;;;14.00;13.00;;;;;-147.17;100.00;-14181.31;5058670;28;51923;-58
2023/05/25 03:26:12;;;;;;;;;17.00;17.00;;;;;-147.17;100.00;-14181.31;5062370;28;52085;-58
2023/05/25 03:28:37;;;;;;;;;17.00;15.00;;;;;-147.17;100.00;-14429.16;5069420;28;51271;-57
2023/05/25 03:31:03;;;;;;;;;16.50;16.25;;;;;-147.17;100.00;-14181.31;5068349;28;51192;-58
2023/05/25 03:33:28;;;;;;;;;14.25;13.75;;;;;-147.17;100.00;-14676.94;5069768;28;51834;-58
2023/05/25 03:35:54;;;;;;;;;14.50;14.00;;;;;-147.17;100.00;-14676.94;5070461;28;50930;-58
2023/05/25 03:38:19;;;;;;;;;13.00;12.75;;;;;-147.17;100.00;-14676.94;5067703;28;52573;-58
2023/05/25 03:40:45;;;;;;;;;15.00;15.00;;;;;-147.17;100.00;-15172.50;5068998;28;51135;-58
2023/05/25 03:43:10;;;;;;;;;14.00;14.00;;;;;-147.17;100.00;-15172.50;5063456;28;51836;-59
2023/05/25 03:45:36;;;;;;;;;14.00;12.50;;;;;-147.17;100.00;-15172.50;5071035;28;50898;-59
2023/05/25 03:48:01;;;;;;;;;15.00;14.25;;;;;-147.17;100.00;-15420.25;5066634;28;51286;-58
2023/05/25 03:50:26;;;;;;;;;13.50;13.50;;;;;-147.17;100.00;-15420.25;5051617;28;51131;-59
2023/05/25 03:52:52;;;;;;;;;16.25;14.75;;;;;-147.17;100.00;-15668.00;5070363;28;51121;-59
2023/05/25 03:55:17;;;;;;;;;15.25;13.00;;;;;-147.17;100.00;-15915.72;5071275;28;51216;-58
2023/05/25 03:57:42;;;;;;;;;13.50;13.00;;;;;-147.17;100.00;-15915.72;5071131;28;51071;-58
2023/05/25 04:00:09;;;;;;;;;9.50;9.50;;;;;-147.17;100.00;-15915.72;5066981;28;51346;-58
2023/05/25 04:02:35;;;;;;;;;14.50;13.50;;;;;-147.17;100.00;-15915.72;5069494;27;51727;-58
2023/05/25 04:05:00;;;;;;;;;17.50;13.75;;;;;-147.17;100.00;-15915.72;5047418;28;51207;-58
2023/05/25 04:07:26;;;;;;;;;16.75;16.00;;;;;-147.17;100.00;-15917.19;5054533;28;51292;-61
2023/05/25 04:09:52;;;;;;;;;18.00;15.75;;;;;-147.17;100.00;-15917.19;5072640;28;51102;-58
2023/05/25 04:12:17;;;;;;;;;14.00;12.75;;;;;-147.17;100.00;-15917.19;5074242;28;51668;-62
2023/05/25 04:14:43;;;;;;;;;15.25;14.50;;;;;-147.17;100.00;-15917.19;5071556;28;51046;-58
2023/05/25 04:17:08;;;;;;;;;15.50;15.00;;;;;-147.17;100.00;-15917.19;5075051;28;51173;-58
2023/05/25 04:19:34;;;;;;;;;13.00;12.00;;;;;-147.17;100.00;-15917.19;5074075;28;51106;-59
2023/05/25 04:21:59;;;;;;;;;18.00;13.50;;;;;-147.17;100.00;-15917.19;5072740;27;52091;-58
2023/05/25 04:24:25;;;;;;;;;16.00;14.50;;;;;-147.17;100.00;-15917.19;5075436;28;51057;-58
2023/05/25 04:26:50;;;;;;;;;16.00;15.00;;;;;-147.17;100.00;-15917.19;5073607;28;50893;-59
2023/05/25 04:29:16;;;;;;;;;12.75;12.00;;;;;-147.17;100.00;-15917.19;5068571;28;50974;-59
2023/05/25 04:31:44;;;;;;;;;14.00;14.00;;;;;-147.17;100.00;-15917.19;5067566;28;50928;-59
2023/05/25 04:34:10;;;;;;;;;12.75;11.75;;;;;-147.17;100.00;-15917.19;5075363;28;51162;-58
2023/05/25 04:36:37;;;;;;;;;15.00;12.75;;;;;-147.17;100.00;-15917.19;5073296;28;51109;-58
2023/05/25 04:39:04;;;;;;;;;11.75;10.00;;;;;-147.17;100.00;-15917.19;5073462;28;51068;-59
2023/05/25 04:41:30;;;;;;;;;17.75;15.25;;;;;-147.17;100.00;-15917.19;5066909;27;52034;-58
2023/05/25 04:43:55;;;;;;;;;14.25;13.50;;;;;-147.17;100.00;-15917.19;5074352;28;51020;-61
2023/05/25 04:46:20;;;;;;;;;15.00;15.00;;;;;-147.17;100.00;-15917.19;5074334;28;51265;-59
2023/05/25 04:48:46;;;;;;;;;15.25;12.25;;;;;-147.17;100.00;-15917.19;5070488;28;51367;-58
2023/05/25 04:51:12;;;;;;;;;13.50;11.75;;;;;-147.17;100.00;-15917.19;5074459;28;59676;-58
2023/05/25 04:53:37;;;;;;;;;13.00;13.00;;;;;-147.17;100.00;-15917.19;5049452;28;50971;-58
2023/05/25 04:56:03;;;;;;;;;16.75;16.25;;;;;-147.17;100.00;-15917.19;5074301;28;51063;-58
2023/05/25 04:58:28;;;;;;;;;14.25;13.75;;;;;-147.17;100.00;-15917.19;5050933;28;51346;-58
2023/05/25 05:00:54;;;;;;;;;16.00;14.25;;;;;-147.17;100.00;-15917.19;5067847;28;51273;-59
2023/05/25 05:03:20;;;;;;;;;14.25;13.75;;;;;-147.17;100.00;-15917.19;5065201;28;51093;-59
2023/05/25 05:05:45;;;;;;;;;14.00;13.25;;;;;-147.17;100.00;-15917.19;5076503;28;51527;-59
2023/05/25 05:08:11;;;;;;;;;13.25;13.25;;;;;-147.17;100.00;-15917.19;5074215;28;51179;-59
2023/05/25 05:10:36;;;;;;;;;13.50;13.50;;;;;-147.17;100.00;-15917.19;5073038;28;52148;-59
2023/05/25 05:13:01;;;;;;;;;13.50;13.25;;;;;-147.17;100.00;-15917.19;5069837;28;51180;-59
2023/05/25 05:15:27;;;;;;;;;14.50;13.00;;;;;-147.17;100.00;-15915.72;5075073;28;51055;-58
2023/05/25 05:17:52;;;;;;;;;13.75;12.50;;;;;-147.17;100.00;-14924.75;5073928;28;51212;-58
2023/05/25 05:20:18;;;;;;;;;18.50;16.00;;;;;-147.17;100.00;-13685.63;5074570;28;51874;-58
2023/05/25 05:22:44;;;;;;;;;14.50;13.00;;;;;-147.17;100.00;-11950.22;5073110;28;50936;-58
2023/05/25 05:25:09;;;;;;;;;14.50;12.00;;;;;-147.17;100.00;-11454.25;5074600;28;50908;-58
2023/05/25 05:27:35;;;;;;;;;12.00;12.00;;;;;-147.17;100.00;-9965.91;5072452;28;51206;-59
2023/05/25 05:30:00;;;;;;;;;13.00;12.00;;;;;-147.17;100.00;-7732.34;5073996;28;52206;-59
2023/05/25 05:32:25;;;;;;;;;14.33;14.33;;;;;-147.17;100.00;-6242.59;5074067;27;50954;-59
2023/05/25 05:34:51;;;;;;;;;13.25;12.50;;;;;-147.17;100.00;-4006.88;5074301;28;51436;-59
2023/05/25 05:37:16;;;;;;;;;15.50;13.25;;;;;-147.17;100.00;-29.03;5071184;28;51647;-58
2023/05/25 05:39:41;;;;;;;;;16.00;15.67;;;;;-147.17;100.00;1712.56;5070428;28;51992;-58
2023/05/25 05:42:08;;;;;;;;;14.33;14.33;;;;;-147.17;100.00;3206.00;5066154;27;51459;-58
2023/05/25 05:44:33;;;;;;;;;15.00;14.00;;;;;-147.17;100.00;6194.59;5060457;28;52270;-58
2023/05/25 05:46:59;;;;;;;;;17.50;16.50;;;;;-147.17;100.00;10931.25;5052918;28;51031;-58
2023/05/25 05:49:28;;;;;;;;;13.67;13.00;;;;;-147.17;100.00;14674.81;5071434;28;51654;-58
2023/05/25 05:51:53;;;;;;;;;16.33;16.00;;;;;-147.17;100.00;15423.94;5072551;28;51215;-58
2023/05/25 05:54:19;;;;;;;;;13.67;13.00;;;;;-147.17;100.00;17922.16;5070362;28;51293;-59
2023/05/25 05:56:44;;;;;;;;;13.75;13.50;;;;;-147.17;100.00;18671.91;5037219;28;51253;-59
2023/05/25 05:59:10;;;;;;;;;13.00;12.33;;;;;-147.17;100.00;22422.94;5069765;28;51068;-59
2023/05/25 06:01:36;;;;;;;;;16.25;13.75;;;;;-147.17;100.00;24174.66;5075953;27;52314;-57
2023/05/25 06:04:01;;;;;;;;;13.00;13.00;;;;;-147.17;100.00;27970.13;5061082;28;51265;-58
2023/05/25 06:06:27;;;;;;;;;14.67;13.67;;;;;-147.17;100.00;27790.06;5061540;28;51234;-58
2023/05/25 06:08:53;;;;;;;;;13.00;13.00;;;;;-147.17;100.00;30392.16;5071291;28;51797;-58
2023/05/25 06:11:18;;;;;;;;;16.33;12.67;;;;;-147.17;100.00;30979.78;5070804;28;51138;-58
2023/05/25 06:13:43;;;;;;;;;15.67;14.33;;;;;-147.17;100.00;33442.88;5068543;28;51463;-59
2023/05/25 06:16:09;;;;;;;;;16.00;14.67;;;;;-147.17;100.00;35125.03;5050881;28;51289;-59
2023/05/25 06:18:34;;;;;;;;;14.67;13.33;;;;;-147.17;100.00;36215.47;5072622;28;51013;-59
2023/05/25 06:21:00;;;;;;;;;15.00;13.33;;;;;-147.17;100.00;38585.69;5073503;28;51061;-59
2023/05/25 06:23:25;;;;;;;;;14.67;12.67;;;;;-147.17;100.00;38350.16;5073419;28;51111;-59
2023/05/25 06:25:52;;;;;;;;;12.33;12.33;;;;;-147.17;100.00;38422.78;5070324;28;51084;-59
2023/05/25 06:28:17;;;;;;;;;10.00;10.00;;;;;-147.17;100.00;40010.84;5067374;28;52894;-59
2023/05/25 06:30:43;;;;;;;;;12.33;12.00;;;;;-147.17;100.00;40976.97;5062164;28;51114;-59
2023/05/25 06:33:08;;;;;;;;;13.00;12.33;;;;;-147.17;100.00;41970.81;5072252;28;51267;-59
2023/05/25 06:35:33;;;;;;;;;11.00;10.67;;;;;-147.17;100.00;42120.09;5071968;28;51196;-59
2023/05/25 06:37:59;;;;;;;;;7.67;7.67;;;;;-147.17;100.00;42226.19;5072016;28;58498;-59
2023/05/25 06:40:24;;;;;;;;;9.00;8.67;;;;;-147.17;100.00;44297.31;5063213;27;51410;-58
2023/05/25 06:42:50;;;;;;;;;9.00;9.00;;;;;-147.17;100.00;42925.59;5068379;27;50991;-59
2023/05/25 06:45:16;;;;;;;;;12.00;12.00;;;;;-147.17;100.00;42595.53;5072587;28;51042;-60
2023/05/25 06:47:41;;;;;;;;;12.00;11.00;;;;;-147.17;100.00;43055.28;5067152;28;51810;-60
2023/05/25 06:50:07;;;;;;;;;15.00;14.00;;;;;-147.17;100.00;42941.34;5069041;28;51246;-60
2023/05/25 06:52:32;;;;;;;;;13.00;12.67;;;;;-147.17;100.00;42935.44;5037185;28;51018;-59
2023/05/25 06:54:58;;;;;;;;;16.00;14.33;;;;;-147.17;100.00;43568.16;5063687;28;51188;-59
2023/05/25 06:57:23;;;;;;;;;10.67;9.67;;;;;-147.17;100.00;44094.88;5069647;28;55289;-59
2023/05/25 06:59:49;;;;;;;;;14.67;13.00;;;;;-147.17;100.00;44081.13;5052313;28;51105;-61
2023/05/25 07:02:17;;;;;;;;;11.33;11.00;;;;;-147.17;100.00;44293.38;5061154;27;51348;-59
2023/05/25 07:04:43;;;;;;;;;9.67;9.67;;;;;-147.17;100.00;44786.78;5063489;28;51271;-60
2023/05/25 07:07:08;;;;;;;;;12.00;11.33;;;;;-147.17;100.00;44641.31;5070682;28;51141;-60
2023/05/25 07:09:33;;;;;;;;;11.00;10.33;;;;;-147.17;100.00;44741.56;5071300;28;50954;-60
2023/05/25 07:11:59;;;;;;;;;10.33;9.33;;;;;-147.17;100.00;44731.72;5050222;28;51071;-60
2023/05/25 07:14:25;;;;;;;;;10.00;9.00;;;;;-147.17;100.00;44476.19;5067799;28;51356;-60
2023/05/25 07:16:50;;;;;;;;;15.00;14.00;;;;;-147.17;100.00;44568.56;5069173;28;51036;-59
2023/05/25 07:19:16;;;;;;;;;10.33;10.33;;;;;-147.17;100.00;44425.09;5070465;28;51195;-60
2023/05/25 07:21:41;;;;;;;;;12.67;11.67;;;;;-147.17;100.00;44558.75;5071561;28;51038;-60
2023/05/25 07:24:07;;;;;;;;;12.00;8.67;;;;;-147.17;100.00;44462.44;5071218;28;50934;-59
2023/05/25 07:26:33;;;;;;;;;10.00;9.67;;;;;-147.17;100.00;44578.41;5072164;28;51065;-59
2023/05/25 07:28:59;;;;;;;;;10.33;9.33;;;;;-147.17;100.00;44769.06;5069666;28;51016;-59
2023/05/25 07:31:24;;;;;;;;;10.67;9.67;;;;;-147.17;100.00;45028.56;5053635;28;51224;-58
2023/05/25 07:33:50;;;;;;;;;9.00;9.00;;;;;-147.17;100.00;44889.00;5072600;28;51397;-59
2023/05/25 07:36:16;;;;;;;;;9.67;9.67;;;;;-147.17;100.00;45073.78;5071303;28;51335;-60
2023/05/25 07:38:41;;;;;;;;;8.33;8.33;;;;;-147.17;100.00;44877.19;5071167;28;51416;-60
2023/05/25 07:41:07;;;;;;;;;10.00;10.00;;;;;-147.17;100.00;45295.94;5059438;28;50969;-60
2023/05/25 07:43:32;;;;;;;;;9.00;9.00;;;;;-147.17;100.00;45339.19;5076271;28;51080;-60
2023/05/25 07:46:00;;;;;;;;;9.67;7.67;;;;;-147.17;100.00;45252.69;5074484;28;51777;-60
2023/05/25 07:48:25;;;;;;;;;6.33;6.33;;;;;-147.17;100.00;45417.84;5065724;28;51682;-60
2023/05/25 07:50:51;;;;;;;;;7.00;7.00;;;;;-147.17;100.00;45441.44;5062676;27;51141;-60
2023/05/25 07:53:16;;;;;;;;;9.67;8.00;;;;;-147.17;100.00;45583.00;5062904;27;51502;-60
2023/05/25 07:55:42;;;;;;;;;7.33;6.67;;;;;-147.17;100.00;45689.16;5059578;28;51985;-58
2023/05/25 07:58:07;;;;;;;;;9.00;9.00;;;;;-147.17;100.00;45681.31;5073821;28;51005;-60
2023/05/25 08:00:32;;;;;;;;;8.00;7.67;;;;;-147.17;100.00;45590.84;5070241;28;51203;-60
2023/05/25 08:02:58;;;;;;;;;9.33;9.33;;;;;-147.17;100.00;45468.94;5056973;28;51418;-60
2023/05/25 08:05:24;;;;;;;;;6.00;6.00;;;;;-147.17;100.00;45244.81;5075128;28;51193;-60
2023/05/25 08:07:49;;;;;;;;;6.00;6.00;;;;;-147.17;100.00;45313.63;5074320;28;51054;-59
2023/05/25 08:10:15;;;;;;;;;8.33;8.00;;;;;-147.17;100.00;45413.91;5072555;28;51115;-59
2023/05/25 08:12:40;;;;;;;;;10.67;10.67;;;;;-147.17;100.00;45197.63;5072259;28;51444;-59
2023/05/25 08:15:06;;;;;;;;;8.33;8.33;;;;;-147.17;100.00;45166.19;5067353;28;51900;-59
2023/05/25 08:17:32;;;;;;;;;7.67;7.67;;;;;-147.17;100.00;45201.56;5075031;28;51531;-60
2023/05/25 08:19:57;;;;;;;;;4.67;4.33;;;;;-147.17;100.00;45140.63;5066097;28;51017;-60
2023/05/25 08:22:22;;;;;;;;;8.67;8.00;;;;;-147.17;100.00;45119.00;5073951;28;51318;-59
2023/05/25 08:24:48;;;;;;;;;6.33;5.67;;;;;-147.17;100.00;45508.28;5074842;28;51996;-59
2023/05/25 08:27:13;;;;;;;;;6.00;5.00;;;;;-147.17;100.00;45728.50;5073463;28;51310;-59
2023/05/25 08:29:39;;;;;;;;;6.33;6.33;;;;;-147.17;100.00;45828.78;5070464;27;51044;-60
2023/05/25 08:32:04;;;;;;;;;6.00;6.00;;;;;-147.17;100.00;45744.22;5048633;28;51403;-60
2023/05/25 08:34:30;;;;;;;;;7.33;7.33;;;;;-147.17;100.00;45325.44;5064549;28;51924;-60
2023/05/25 08:36:56;;;;;;;;;8.33;6.67;;;;;-147.17;100.00;44971.56;5074173;28;51063;-58
2023/05/25 08:39:22;;;;;;;;;5.00;5.00;;;;;-147.17;100.00;45103.28;5074310;28;51022;-58
2023/05/25 08:41:49;;;;;;;;;6.33;6.33;;;;;-147.17;100.00;44997.13;5074214;28;51369;-59
2023/05/25 08:44:14;;;;;;;;;5.33;5.33;;;;;-147.17;100.00;45012.84;5055231;28;51178;-59
2023/05/25 08:46:40;;;;;;;;;6.67;6.67;;;;;-147.17;100.00;44773.00;5055383;28;51017;-59
2023/05/25 08:49:13;;;;;;;;;7.33;6.33;;;;;-147.17;100.00;44912.56;5045344;28;51206;-59
2023/05/25 08:51:49;;;;;;;;;6.00;5.33;;;;;-147.17;100.00;44867.38;5073092;28;51067;-59
2023/05/25 08:54:21;;;;;;;;;6.33;5.67;;;;;-147.17;100.00;44605.91;5066150;28;51192;-59
2023/05/25 08:56:54;;;;;;;;;5.00;5.00;;;;;-147.17;100.00;44311.06;5074308;28;51092;-60
2023/05/25 08:59:29;;;;;;;;;5.00;5.00;;;;;-147.17;100.00;43912.09;5073538;28;51267;-58
2023/05/25 09:02:04;;;;;;;;;5.00;5.00;;;;;-147.17;100.00;43416.84;5073864;28;51093;-58
2023/05/25 09:04:33;;;;;;;;;6.33;6.00;;;;;-147.17;100.00;43196.78;5073163;28;52042;-60
2023/05/25 09:06:59;;;;;;;;;6.00;5.00;;;;;-147.17;100.00;42854.88;5073701;27;51355;-59
2023/05/25 09:09:25;;;;;;;;;7.00;7.00;;;;;-147.17;100.00;43149.59;5073871;28;51124;-60
2023/05/25 09:11:51;;;;;;;;;4.67;4.00;;;;;-147.17;100.00;43318.59;5073708;28;51104;-59
2023/05/25 09:14:17;;;;;;;;;4.67;4.67;;;;;-147.17;100.00;43809.91;5071622;28;51158;-60
2023/05/25 09:16:43;;;;;;;;;8.00;8.00;;;;;-147.17;100.00;44088.97;5072144;28;51072;-60
2023/05/25 09:19:08;;;;;;;;;4.67;4.33;;;;;-147.17;100.00;43703.78;5069891;27;51145;-59
2023/05/25 09:21:34;;;;;;;;;5.67;5.67;;;;;-147.17;100.00;43240.00;5065324;28;51213;-59
2023/05/25 09:24:00;;;;;;;;;4.67;4.00;;;;;-147.17;100.00;42819.50;5057576;28;51927;-59
2023/05/25 09:26:26;;;;;;;;;5.00;4.00;;;;;-147.17;100.00;42886.31;5073567;28;50959;-59
2023/05/25 09:28:51;;;;;;;;;5.67;5.67;;;;;-147.17;100.00;42737.00;5073502;28;51120;-60
2023/05/25 09:31:17;;;;;;;;;5.67;5.33;;;;;-147.17;100.00;42660.38;5073326;28;51650;-60
2023/05/25 09:33:43;;;;;;;;;6.00;6.00;;;;;-147.17;100.00;42192.78;5066982;28;51831;-60
2023/05/25 09:36:09;;;;;;;;;6.33;5.67;;;;;-147.17;100.00;41766.50;5072477;28;50870;-59
2023/05/25 09:38:35;;;;;;;;;9.00;7.00;;;;;-147.17;100.00;42006.16;5061993;28;51155;-59
2023/05/25 09:41:00;;;;;;;;;6.00;5.00;;;;;-147.17;100.00;43059.22;5055713;28;51318;-60
2023/05/25 09:43:26;;;;;;;;;4.00;3.33;;;;;-147.17;100.00;43357.91;5073016;28;51547;-60
2023/05/25 09:45:52;;;;;;;;;5.33;4.67;;;;;-147.17;100.00;42872.56;5071109;28;51196;-59
2023/05/25 09:48:20;;;;;;;;;7.33;5.67;;;;;-147.17;100.00;42909.88;5068073;28;51139;-59
2023/05/25 09:50:45;;;;;;;;;5.33;5.33;;;;;-147.17;100.00;43196.78;5068835;28;50957;-60
2023/05/25 09:53:11;;;;;;;;;4.00;4.00;;;;;-147.17;100.00;43094.59;5072407;28;51125;-59
2023/05/25 09:55:37;;;;;;;;;2.67;2.67;;;;;-147.17;100.00;42911.84;5068493;28;51041;-58
2023/05/25 09:58:03;;;;;;;;;4.00;4.00;;;;;-147.17;100.00;42566.06;5072498;28;51308;-57
2023/05/25 10:00:28;;;;;;;;;5.00;4.33;;;;;-147.17;100.00;43086.72;5067829;28;51062;-57
2023/05/25 10:02:54;;;;;;;;;4.33;4.33;;;;;-147.17;100.00;42768.44;5054557;28;51298;-58
2023/05/25 10:05:19;;;;;;;;;4.00;4.00;;;;;-147.17;100.00;42642.69;5043375;28;51398;-58
2023/05/25 10:07:45;;;;;;;;;5.67;5.00;;;;;-147.17;100.00;43817.75;5053699;28;51105;-57
2023/05/25 10:10:16;;;;;;;;;5.00;5.00;;;;;-147.17;100.00;44928.31;5070322;28;51417;-58
2023/05/25 10:12:43;;;;;;;;;3.33;3.33;;;;;-147.17;100.00;45264.47;5056100;28;50975;-57
2023/05/25 10:15:12;;;;;;;;;6.00;6.00;;;;;-147.17;100.00;45207.47;5070171;28;51076;-58
2023/05/25 10:17:51;;;;;;;;;5.00;5.00;;;;;-147.17;100.00;45433.56;5068230;28;51081;-58
2023/05/25 10:20:19;;;;;;;;;5.00;4.33;;;;;-147.17;100.00;45940.84;5062326;28;51067;-58
2023/05/25 10:22:59;;;;;;;;;6.00;6.00;;;;;-147.17;100.00;46273.19;5067822;28;51964;-58
2023/05/25 10:25:36;;;;;;;;;5.33;4.67;;;;;-147.17;100.00;46713.69;5064402;28;51305;-57
2023/05/25 10:28:19;;;;;;;;;5.67;5.67;;;;;-147.17;100.00;47089.38;5067766;27;50891;-59
2023/05/25 10:30:46;;;;;;;;;5.67;5.00;;;;;-147.17;100.00;47347.03;5062714;28;51394;-59
2023/05/25 10:33:12;;;;;;;;;5.67;5.33;;;;;-147.17;100.00;47352.94;5068680;28;53104;-58
2023/05/25 10:35:42;;;;;;;;;7.00;7.00;;;;;-147.17;100.00;47360.81;5068106;28;50905;-57
2023/05/25 10:38:09;;;;;;;;;5.00;5.00;;;;;-147.17;100.00;47557.53;5071126;28;51119;-58
2023/05/25 10:40:36;;;;;;;;;5.00;5.00;;;;;-147.17;100.00;47943.09;5068101;27;50886;-58
2023/05/25 10:43:03;;;;;;;;;6.00;6.00;;;;;-147.17;100.00;48246.09;5065381;28;52598;-58
2023/05/25 10:45:29;;;;;;;;;5.00;5.00;;;;;-147.17;100.00;48411.38;5056876;28;51196;-58
2023/05/25 10:47:54;;;;;;;;;4.00;4.00;;;;;-147.17;100.00;48513.69;5067495;28;51014;-58
2023/05/25 10:50:23;;;;;;;;;7.67;7.67;;;;;-147.17;100.00;48645.53;5072355;28;50952;-58
2023/05/25 10:53:07;;;;;;;;;5.33;5.33;;;;;-147.17;100.00;48686.84;5069478;28;51191;-58
2023/05/25 10:56:01;;;;;;;;;6.00;6.00;;;;;-147.17;100.00;48734.06;5070759;27;51016;-59